Time;durP1;ratioP1;P1;durP2;ratioP2;P2;SDS_P1;SDS_P2;PMS_P1;PMS_P2;Temp;Humidity;BMP_temperature;BMP_pressure;BME280_temperature;BME280_humidity;BME280_pressure;Samples;Min_cycle;Max_cycle;Signal;HPM_P1;HPM_P2
2022/03/03 00:00:28;;;;;;;0.40;0.40;;;3.10;83.20;;;;;;4993716;28;20169;-69
2022/03/03 00:02:53;;;;;;;0.40;0.40;;;3.20;83.20;;;;;;4993865;28;20914;-69
2022/03/03 00:05:19;;;;;;;0.30;0.30;;;3.10;83.50;;;;;;4993821;28;20410;-67
2022/03/03 00:07:44;;;;;;;0.40;0.40;;;3.10;83.80;;;;;;4993899;28;20711;-69
2022/03/03 00:10:11;;;;;;;0.40;0.40;;;3.10;83.80;;;;;;4993858;28;20172;-68
2022/03/03 00:12:37;;;;;;;0.30;0.30;;;3.10;84.50;;;;;;4993612;28;20203;-68
2022/03/03 00:15:03;;;;;;;0.40;0.40;;;3.10;84.90;;;;;;4993930;28;20319;-69
2022/03/03 00:17:29;;;;;;;0.30;0.30;;;3.10;85.10;;;;;;4993612;28;20458;-69
2022/03/03 00:19:54;;;;;;;0.40;0.40;;;3.00;85.30;;;;;;4993722;28;20699;-69
2022/03/03 00:22:20;;;;;;;0.40;0.40;;;3.00;85.70;;;;;;4995934;28;20245;-69
2022/03/03 00:24:46;;;;;;;0.30;0.30;;;3.00;85.80;;;;;;4997638;28;20184;-69
2022/03/03 00:27:12;;;;;;;4.30;1.50;;;2.90;85.60;;;;;;4997276;28;20172;-68
2022/03/03 00:29:38;;;;;;;0.30;0.30;;;2.90;86.10;;;;;;4997304;28;20247;-69
2022/03/03 00:32:04;;;;;;;0.87;0.87;;;2.80;86.10;;;;;;4997061;28;20259;-68
2022/03/03 00:34:29;;;;;;;0.40;0.40;;;2.90;86.70;;;;;;4997189;28;20897;-68
2022/03/03 00:36:55;;;;;;;0.30;0.30;;;2.90;87.20;;;;;;4997275;28;20176;-68
2022/03/03 00:39:21;;;;;;;0.40;0.40;;;2.90;87.80;;;;;;4997147;28;20230;-69
2022/03/03 00:41:47;;;;;;;0.30;0.30;;;2.90;88.20;;;;;;4996803;28;20275;-69
2022/03/03 00:44:12;;;;;;;0.30;0.30;;;2.90;88.60;;;;;;4996979;28;20193;-68
2022/03/03 00:46:38;;;;;;;0.40;0.40;;;2.90;89.00;;;;;;4997201;28;20198;-69
2022/03/03 00:49:04;;;;;;;0.40;0.40;;;3.00;89.10;;;;;;4997048;28;20170;-69
2022/03/03 00:51:30;;;;;;;0.32;0.32;;;3.00;89.00;;;;;;4996906;28;20422;-69
2022/03/03 00:53:56;;;;;;;0.40;0.40;;;3.00;89.20;;;;;;4996863;28;20200;-69
2022/03/03 00:56:22;;;;;;;0.40;0.40;;;3.00;89.60;;;;;;4996730;28;20173;-68
2022/03/03 00:58:48;;;;;;;0.40;0.40;;;3.00;90.00;;;;;;4996674;28;20972;-69
2022/03/03 01:01:14;;;;;;;0.30;0.30;;;2.90;90.00;;;;;;4996750;28;20263;-68
2022/03/03 01:03:40;;;;;;;0.60;0.60;;;2.90;90.30;;;;;;4996776;28;20196;-68
2022/03/03 01:06:06;;;;;;;0.30;0.30;;;2.80;90.50;;;;;;4996808;28;20172;-68
2022/03/03 01:08:32;;;;;;;0.30;0.30;;;2.80;90.90;;;;;;4996791;28;20506;-69
2022/03/03 01:10:58;;;;;;;0.40;0.40;;;2.80;91.10;;;;;;4996293;28;20758;-69
2022/03/03 01:13:24;;;;;;;0.40;0.40;;;2.80;91.20;;;;;;4996378;28;20682;-69
2022/03/03 01:15:50;;;;;;;0.30;0.30;;;2.80;91.30;;;;;;4979049;28;20311;-69
2022/03/03 01:18:16;;;;;;;0.40;0.40;;;2.80;91.30;;;;;;4996435;28;20679;-67
2022/03/03 01:20:42;;;;;;;0.30;0.30;;;2.80;91.40;;;;;;4996472;28;20564;-69
2022/03/03 01:23:08;;;;;;;0.40;0.40;;;2.80;91.40;;;;;;4996465;28;20196;-68
2022/03/03 01:25:34;;;;;;;0.83;0.83;;;2.80;91.60;;;;;;4996256;28;20905;-68
2022/03/03 01:28:00;;;;;;;0.30;0.30;;;2.70;91.60;;;;;;4996450;28;20172;-68
2022/03/03 01:30:26;;;;;;;0.40;0.40;;;2.80;91.70;;;;;;4996004;28;20431;-68
2022/03/03 01:32:51;;;;;;;0.30;0.30;;;2.80;91.80;;;;;;4995185;28;20192;-69
2022/03/03 01:35:17;;;;;;;0.30;0.30;;;2.80;91.90;;;;;;4996060;28;20238;-69
2022/03/03 01:37:43;;;;;;;0.30;0.30;;;2.70;91.90;;;;;;4996165;28;20204;-68
2022/03/03 01:40:10;;;;;;;0.30;0.30;;;2.70;92.10;;;;;;4995794;28;20175;-69
2022/03/03 01:42:35;;;;;;;2.88;2.78;;;2.60;92.30;;;;;;4995674;28;20188;-68
2022/03/03 01:45:01;;;;;;;0.30;0.30;;;2.60;92.60;;;;;;4995881;28;20175;-68
2022/03/03 01:47:27;;;;;;;0.40;0.40;;;2.60;92.90;;;;;;4996201;28;20189;-69
2022/03/03 01:49:54;;;;;;;0.30;0.30;;;2.60;92.70;;;;;;4995864;28;20172;-68
2022/03/03 01:52:20;;;;;;;0.40;0.40;;;2.70;92.60;;;;;;4995917;28;20627;-68
2022/03/03 01:54:46;;;;;;;0.95;0.95;;;2.70;92.50;;;;;;4995937;28;20666;-68
2022/03/03 01:57:16;;;;;;;0.30;0.30;;;2.70;92.50;;;;;;4995543;28;20182;-68
2022/03/03 01:59:41;;;;;;;0.30;0.30;;;2.70;92.60;;;;;;4995865;28;20181;-69
2022/03/03 02:02:10;;;;;;;0.30;0.30;;;2.60;93.00;;;;;;4995452;28;20220;-68
2022/03/03 02:04:38;;;;;;;0.50;0.50;;;2.70;92.60;;;;;;4995502;28;20631;-67
2022/03/03 02:07:05;;;;;;;0.30;0.30;;;2.70;92.60;;;;;;4978227;28;20558;-67
2022/03/03 02:09:30;;;;;;;0.30;0.30;;;2.70;92.80;;;;;;4995449;28;20175;-69
2022/03/03 02:11:56;;;;;;;0.40;0.40;;;2.60;92.80;;;;;;4995112;28;20192;-68
2022/03/03 02:14:22;;;;;;;0.30;0.30;;;2.60;93.00;;;;;;4995266;28;20554;-68
2022/03/03 02:16:47;;;;;;;0.40;0.40;;;2.60;93.10;;;;;;4995423;28;20257;-68
2022/03/03 02:19:21;;;;;;;0.30;0.30;;;2.50;93.20;;;;;;4995340;28;20945;-68
2022/03/03 02:21:51;;;;;;;0.40;0.40;;;2.50;93.20;;;;;;4995015;28;20219;-69
2022/03/03 02:24:20;;;;;;;0.40;0.40;;;2.50;93.20;;;;;;4995060;28;20193;-68
2022/03/03 02:26:47;;;;;;;0.40;0.40;;;2.50;93.30;;;;;;4995149;28;20169;-67
2022/03/03 02:29:13;;;;;;;0.40;0.40;;;2.50;93.80;;;;;;4995107;28;20172;-68
2022/03/03 02:31:39;;;;;;;0.30;0.30;;;2.40;93.60;;;;;;4995000;28;20231;-68
2022/03/03 02:34:04;;;;;;;0.40;0.40;;;2.50;93.70;;;;;;4994882;28;20662;-69
2022/03/03 02:36:30;;;;;;;0.40;0.40;;;2.50;93.70;;;;;;4995148;28;20408;-67
2022/03/03 02:38:59;;;;;;;0.30;0.30;;;2.50;93.60;;;;;;4995035;28;20266;-68
2022/03/03 02:41:25;;;;;;;0.30;0.30;;;2.50;93.60;;;;;;4994769;28;20829;-68
2022/03/03 02:43:52;;;;;;;0.32;0.32;;;2.50;93.60;;;;;;4994527;28;20232;-68
2022/03/03 02:46:18;;;;;;;0.30;0.30;;;2.40;93.60;;;;;;4994917;28;20172;-69
2022/03/03 02:48:44;;;;;;;0.30;0.30;;;2.40;93.70;;;;;;4994856;28;20176;-68
2022/03/03 02:51:10;;;;;;;0.40;0.40;;;2.40;93.70;;;;;;4994612;28;20180;-68
2022/03/03 02:53:36;;;;;;;0.40;0.40;;;2.40;93.70;;;;;;4994683;28;20200;-68
2022/03/03 02:56:03;;;;;;;2.35;2.25;;;2.40;93.70;;;;;;4994838;28;20183;-68
2022/03/03 02:58:29;;;;;;;0.30;0.30;;;2.30;93.60;;;;;;4994696;28;20200;-67
2022/03/03 03:00:56;;;;;;;0.30;0.30;;;2.30;93.80;;;;;;4994394;28;20177;-67
2022/03/03 03:03:21;;;;;;;0.30;0.30;;;2.20;93.80;;;;;;4994590;28;20658;-68
2022/03/03 03:05:47;;;;;;;0.30;0.30;;;2.20;94.00;;;;;;4994447;28;20164;-69
2022/03/03 03:08:13;;;;;;;0.30;0.30;;;2.20;94.20;;;;;;4994722;28;20176;-68
2022/03/03 03:10:40;;;;;;;0.40;0.40;;;2.20;94.30;;;;;;4994191;28;20180;-67
2022/03/03 03:13:07;;;;;;;1.42;1.42;;;2.20;94.40;;;;;;4994293;28;20302;-68
2022/03/03 03:15:34;;;;;;;0.30;0.30;;;2.20;94.40;;;;;;4994360;28;20172;-69
2022/03/03 03:18:17;;;;;;;0.30;0.30;;;2.20;94.40;;;;;;4994323;28;20216;-68
2022/03/03 03:20:45;;;;;;;0.40;0.40;;;2.20;94.50;;;;;;4994337;28;20255;-68
2022/03/03 03:23:13;;;;;;;0.30;0.30;;;2.20;94.60;;;;;;4994230;28;20224;-68
2022/03/03 03:25:43;;;;;;;0.40;0.40;;;2.40;94.70;;;;;;4994260;28;20166;-68
2022/03/03 03:28:10;;;;;;;0.40;0.40;;;2.40;94.60;;;;;;4994341;28;20585;-68
2022/03/03 03:30:36;;;;;;;0.30;0.30;;;2.40;94.70;;;;;;4994167;28;20559;-69
2022/03/03 03:33:02;;;;;;;0.90;0.90;;;2.40;94.30;;;;;;4976587;28;20204;-68
2022/03/03 03:35:29;;;;;;;0.30;0.30;;;2.40;94.00;;;;;;4994147;28;20172;-69
2022/03/03 03:37:55;;;;;;;0.30;0.30;;;2.40;94.00;;;;;;4994084;28;20200;-68
2022/03/03 03:40:21;;;;;;;0.50;0.50;;;2.30;94.00;;;;;;4993999;28;20170;-67
2022/03/03 03:42:47;;;;;;;0.65;0.65;;;2.30;94.20;;;;;;4994105;28;20196;-68
2022/03/03 03:45:13;;;;;;;0.30;0.30;;;2.30;94.30;;;;;;4976552;28;20323;-68
2022/03/03 03:47:40;;;;;;;0.40;0.40;;;2.20;94.30;;;;;;4993965;28;20183;-67
2022/03/03 03:50:08;;;;;;;0.40;0.40;;;2.20;94.40;;;;;;4993801;28;20180;-68
2022/03/03 03:52:38;;;;;;;0.40;0.40;;;2.20;94.50;;;;;;4976448;28;20661;-68
2022/03/03 03:55:06;;;;;;;0.35;0.35;;;2.20;94.60;;;;;;4993956;28;20191;-68
2022/03/03 03:57:31;;;;;;;0.40;0.40;;;2.20;94.60;;;;;;4996678;28;20242;-68
2022/03/03 03:59:58;;;;;;;0.40;0.40;;;2.20;94.70;;;;;;4997891;28;20175;-67
2022/03/03 04:02:23;;;;;;;0.40;0.40;;;2.30;95.50;;;;;;4980222;28;20179;-67
2022/03/03 04:04:49;;;;;;;0.30;0.30;;;2.30;94.50;;;;;;4997582;28;20176;-67
2022/03/03 04:07:15;;;;;;;0.40;0.40;;;2.30;94.40;;;;;;4997837;28;20570;-68
2022/03/03 04:09:40;;;;;;;0.40;0.40;;;2.20;94.20;;;;;;4997792;28;20175;-68
2022/03/03 04:12:06;;;;;;;0.30;0.30;;;2.10;94.20;;;;;;4979791;28;20184;-68
2022/03/03 04:14:32;;;;;;;0.30;0.30;;;2.00;94.50;;;;;;4997596;28;20168;-67
2022/03/03 04:16:58;;;;;;;0.30;0.30;;;2.00;94.60;;;;;;4997753;28;20602;-67
2022/03/03 04:19:23;;;;;;;0.50;0.50;;;2.00;94.70;;;;;;4997792;28;20227;-68
2022/03/03 04:21:49;;;;;;;0.30;0.30;;;2.00;94.60;;;;;;4997370;28;20623;-68
2022/03/03 04:24:15;;;;;;;0.30;0.30;;;1.90;94.70;;;;;;4997356;28;20568;-68
2022/03/03 04:26:41;;;;;;;0.40;0.40;;;1.90;94.90;;;;;;4997549;28;20161;-68
2022/03/03 04:29:07;;;;;;;1.13;1.10;;;2.00;95.00;;;;;;4997306;28;20176;-68
2022/03/03 04:31:33;;;;;;;0.30;0.30;;;2.00;95.00;;;;;;4997153;28;20766;-68
2022/03/03 04:33:58;;;;;;;0.40;0.40;;;2.00;94.80;;;;;;4997189;28;20788;-68
2022/03/03 04:36:24;;;;;;;1.90;1.80;;;2.00;95.00;;;;;;4997286;28;20189;-68
2022/03/03 04:38:50;;;;;;;0.40;0.40;;;2.00;95.00;;;;;;4997224;28;20282;-68
2022/03/03 04:41:19;;;;;;;0.40;0.40;;;2.00;94.70;;;;;;4996832;28;20602;-68
2022/03/03 04:43:44;;;;;;;0.40;0.40;;;2.00;94.60;;;;;;4996992;28;20246;-68
2022/03/03 04:46:10;;;;;;;0.40;0.40;;;2.00;94.70;;;;;;4997072;28;20173;-68
2022/03/03 04:48:36;;;;;;;0.40;0.40;;;1.90;94.80;;;;;;4997157;28;20176;-67
2022/03/03 04:51:03;;;;;;;0.30;0.30;;;1.90;94.80;;;;;;4996842;28;20173;-68
2022/03/03 04:53:29;;;;;;;0.40;0.40;;;1.90;94.90;;;;;;4996799;28;20203;-68
2022/03/03 04:55:56;;;;;;;0.82;0.82;;;1.80;94.70;;;;;;4996751;28;20259;-67
2022/03/03 04:58:21;;;;;;;0.40;0.40;;;1.80;94.90;;;;;;4996650;28;20203;-68
2022/03/03 05:00:47;;;;;;;0.30;0.30;;;1.80;94.90;;;;;;4996762;28;20528;-69
2022/03/03 05:03:13;;;;;;;0.30;0.30;;;1.70;94.90;;;;;;4996811;28;20250;-68
2022/03/03 05:05:39;;;;;;;0.40;0.40;;;1.70;95.20;;;;;;4996594;28;20180;-68
2022/03/03 05:08:05;;;;;;;0.40;0.40;;;1.60;94.90;;;;;;4996505;28;20407;-67
2022/03/03 05:10:31;;;;;;;0.38;0.38;;;1.60;95.10;;;;;;4996510;28;20222;-68
2022/03/03 05:12:57;;;;;;;0.30;0.30;;;1.70;95.00;;;;;;4996345;28;20211;-68
2022/03/03 05:15:23;;;;;;;0.30;0.30;;;1.70;94.90;;;;;;4996497;28;20486;-67
2022/03/03 05:17:49;;;;;;;0.30;0.30;;;1.70;94.80;;;;;;4996526;28;20679;-67
2022/03/03 05:20:15;;;;;;;0.40;0.40;;;1.70;94.90;;;;;;4978698;28;20175;-67
2022/03/03 05:22:41;;;;;;;0.40;0.40;;;1.70;94.90;;;;;;4996476;28;20192;-67
2022/03/03 05:25:07;;;;;;;0.40;0.40;;;1.70;95.00;;;;;;4996224;28;20187;-67
2022/03/03 05:27:33;;;;;;;0.40;0.40;;;1.70;94.70;;;;;;4996477;28;20543;-68
2022/03/03 05:29:59;;;;;;;0.30;0.30;;;1.70;94.60;;;;;;4996063;28;20191;-68
2022/03/03 05:32:25;;;;;;;0.40;0.40;;;1.70;94.80;;;;;;4996133;28;20230;-67
2022/03/03 05:34:51;;;;;;;0.40;0.40;;;1.70;94.80;;;;;;4996085;28;20646;-68
2022/03/03 05:37:24;;;;;;;0.40;0.40;;;1.70;94.80;;;;;;4996235;28;20427;-67
2022/03/03 05:39:53;;;;;;;0.40;0.40;;;1.80;94.70;;;;;;4996483;28;20632;-67
2022/03/03 05:42:20;;;;;;;0.30;0.30;;;1.80;94.60;;;;;;4995909;28;20176;-68
2022/03/03 05:44:47;;;;;;;0.40;0.40;;;1.80;94.50;;;;;;4995847;28;20286;-67
2022/03/03 05:47:14;;;;;;;0.40;0.40;;;1.80;94.40;;;;;;4995967;28;20211;-67
2022/03/03 05:49:43;;;;;;;0.30;0.30;;;1.90;94.30;;;;;;4996046;28;20696;-68
2022/03/03 05:52:09;;;;;;;0.40;0.40;;;1.80;94.30;;;;;;4995661;28;20207;-68
2022/03/03 05:54:36;;;;;;;0.30;0.30;;;1.80;94.30;;;;;;4995726;28;20560;-68
2022/03/03 05:57:04;;;;;;;0.40;0.40;;;1.80;94.10;;;;;;4995720;28;20188;-67
2022/03/03 05:59:32;;;;;;;0.40;0.40;;;1.80;94.20;;;;;;4995726;28;20200;-68
2022/03/03 06:01:59;;;;;;;0.40;0.40;;;1.80;94.40;;;;;;4995472;28;20180;-67
2022/03/03 06:04:28;;;;;;;0.40;0.40;;;1.80;94.30;;;;;;4977998;28;20662;-67
2022/03/03 06:07:06;;;;;;;0.38;0.38;;;1.80;94.30;;;;;;4995940;28;20561;-68
2022/03/03 06:09:33;;;;;;;0.40;0.40;;;1.70;94.40;;;;;;4995677;28;20584;-68
2022/03/03 06:12:19;;;;;;;0.30;0.30;;;1.70;94.40;;;;;;4995129;28;20557;-68
2022/03/03 06:15:01;;;;;;;0.30;0.30;;;1.70;94.60;;;;;;4995366;28;20152;-68
2022/03/03 06:17:27;;;;;;;0.40;0.40;;;1.70;94.50;;;;;;4995461;28;20199;-68
2022/03/03 06:19:53;;;;;;;0.30;0.30;;;1.70;94.60;;;;;;4994612;28;20714;-68
2022/03/03 06:22:20;;;;;;;0.40;0.40;;;1.70;94.80;;;;;;4995227;28;20657;-67
2022/03/03 06:24:47;;;;;;;0.40;0.40;;;1.80;94.80;;;;;;4995163;28;20185;-67
2022/03/03 06:27:13;;;;;;;0.40;0.40;;;1.90;94.60;;;;;;4995228;28;20255;-68
2022/03/03 06:29:39;;;;;;;0.40;0.40;;;1.90;94.40;;;;;;4995190;28;20311;-67
2022/03/03 06:32:06;;;;;;;0.40;0.40;;;2.00;94.50;;;;;;4994910;28;20166;-67
2022/03/03 06:34:32;;;;;;;0.40;0.40;;;2.10;94.40;;;;;;4994926;28;20396;-67
2022/03/03 06:36:57;;;;;;;0.40;0.40;;;2.10;94.20;;;;;;4995042;28;20513;-69
2022/03/03 06:39:24;;;;;;;0.30;0.30;;;2.10;94.10;;;;;;4994967;28;20200;-69
2022/03/03 06:41:51;;;;;;;0.30;0.30;;;2.10;94.00;;;;;;4994869;28;20212;-67
2022/03/03 06:44:17;;;;;;;0.30;0.30;;;2.10;94.30;;;;;;4994913;28;20188;-67
2022/03/03 06:46:43;;;;;;;0.40;0.40;;;2.20;94.30;;;;;;4994904;28;20173;-68
2022/03/03 06:49:09;;;;;;;0.30;0.30;;;2.30;94.30;;;;;;4995105;28;20173;-68
2022/03/03 06:51:43;;;;;;;0.40;0.40;;;2.30;94.00;;;;;;4994603;28;20180;-69
2022/03/03 06:54:20;;;;;;;0.30;0.30;;;2.40;93.80;;;;;;4994774;28;20560;-68
2022/03/03 06:56:57;;;;;;;0.38;0.38;;;2.40;93.70;;;;;;4994479;28;20184;-68
2022/03/03 06:59:28;;;;;;;0.40;0.40;;;2.40;93.90;;;;;;4994665;28;20205;-67
2022/03/03 07:01:55;;;;;;;0.75;0.65;;;2.50;93.80;;;;;;4994494;28;20179;-67
2022/03/03 07:04:21;;;;;;;0.30;0.30;;;2.60;93.80;;;;;;4994435;28;20691;-67
2022/03/03 07:06:48;;;;;;;0.40;0.40;;;2.70;93.70;;;;;;4994588;28;20190;-68
2022/03/03 07:09:14;;;;;;;0.30;0.30;;;2.80;93.60;;;;;;4994537;28;20182;-68
2022/03/03 07:11:42;;;;;;;0.80;0.80;;;2.90;93.40;;;;;;4994110;28;20240;-67
2022/03/03 07:14:08;;;;;;;0.30;0.30;;;2.90;93.00;;;;;;4994262;28;20192;-67
2022/03/03 07:17:01;;;;;;;0.30;0.30;;;3.00;92.70;;;;;;4994383;28;20187;-68
2022/03/03 07:19:26;;;;;;;0.30;0.30;;;3.10;92.70;;;;;;4994381;28;20199;-67
2022/03/03 07:22:18;;;;;;;0.30;0.30;;;3.10;92.60;;;;;;4976628;28;20552;-68
2022/03/03 07:24:45;;;;;;;0.40;0.40;;;3.30;94.50;;;;;;4994191;28;20156;-69
2022/03/03 07:27:20;;;;;;;0.50;0.50;;;4.70;94.60;;;;;;4994321;28;20598;-69
2022/03/03 07:30:07;;;;;;;0.30;0.30;;;6.60;86.70;;;;;;4994834;28;20196;-67
2022/03/03 07:32:38;;;;;;;0.40;0.40;;;8.30;77.00;;;;;;4993485;28;20184;-67
2022/03/03 07:35:14;;;;;;;0.43;0.43;;;10.10;67.00;;;;;;4994176;28;20220;-69
2022/03/03 07:37:49;;;;;;;0.50;0.50;;;11.40;58.70;;;;;;4993909;28;20195;-69
2022/03/03 07:40:16;;;;;;;0.40;0.40;;;12.80;53.80;;;;;;4993993;28;20259;-68
2022/03/03 07:42:42;;;;;;;0.40;0.40;;;13.80;49.80;;;;;;4994518;28;20211;-68
2022/03/03 07:45:08;;;;;;;2.00;1.90;;;14.40;47.00;;;;;;4993988;28;20536;-68
2022/03/03 07:47:35;;;;;;;0.40;0.40;;;14.80;45.00;;;;;;4994051;28;20176;-68
2022/03/03 07:50:01;;;;;;;0.60;0.60;;;14.70;44.70;;;;;;4993879;28;20176;-69
2022/03/03 07:52:28;;;;;;;1.37;1.27;;;15.00;45.00;;;;;;4994000;28;20433;-69
2022/03/03 07:54:54;;;;;;;1.70;1.60;;;15.20;43.90;;;;;;4993901;28;20172;-68
2022/03/03 07:57:22;;;;;;;0.90;0.90;;;16.10;43.60;;;;;;4993753;28;20410;-69
2022/03/03 07:59:56;;;;;;;3.80;1.17;;;17.00;41.70;;;;;;4993863;28;20403;-69
2022/03/03 08:02:23;;;;;;;1.70;1.47;;;17.50;40.80;;;;;;4994023;28;20399;-69
2022/03/03 08:04:53;;;;;;;0.37;0.37;;;17.90;40.20;;;;;;4976562;28;20430;-70
2022/03/03 08:07:19;;;;;;;0.60;0.60;;;18.30;38.90;;;;;;4993940;28;20403;-69
2022/03/03 08:09:50;;;;;;;0.40;0.40;;;18.80;37.60;;;;;;4993915;28;20488;-69
2022/03/03 08:12:16;;;;;;;1.37;1.27;;;19.00;36.50;;;;;;4993443;28;20925;-68
2022/03/03 08:14:42;;;;;;;0.77;0.77;;;18.90;36.20;;;;;;4993707;28;20748;-68
2022/03/03 08:17:13;;;;;;;0.30;0.30;;;18.90;36.00;;;;;;4993736;28;20419;-68
2022/03/03 08:19:39;;;;;;;0.30;0.30;;;19.10;35.80;;;;;;4993912;28;20398;-69
2022/03/03 08:22:05;;;;;;;0.40;0.40;;;19.50;35.70;;;;;;4993928;28;20393;-69
2022/03/03 08:24:35;;;;;;;0.40;0.40;;;20.10;35.40;;;;;;4993546;28;20415;-68
2022/03/03 08:27:03;;;;;;;1.33;1.33;;;20.70;33.40;;;;;;4993638;28;20391;-68
2022/03/03 08:29:28;;;;;;;2.07;1.97;;;21.10;32.50;;;;;;4993850;28;20798;-68
2022/03/03 08:31:56;;;;;;;1.03;1.03;;;21.40;32.20;;;;;;4993497;28;20431;-68
2022/03/03 08:34:46;;;;;;;0.40;0.40;;;21.40;33.60;;;;;;4993494;28;20607;-69
2022/03/03 08:37:34;;;;;;;0.30;0.30;;;21.10;33.80;;;;;;4976026;28;20852;-70
2022/03/03 08:40:03;;;;;;;0.40;0.40;;;21.30;33.70;;;;;;4993396;28;20426;-69
2022/03/03 08:42:39;;;;;;;1.17;1.13;;;21.40;31.90;;;;;;4994476;28;20497;-68
2022/03/03 08:45:08;;;;;;;0.47;0.47;;;21.80;32.00;;;;;;4979514;28;20426;-68
2022/03/03 08:47:34;;;;;;;0.80;0.80;;;21.90;30.80;;;;;;4997224;28;20827;-69
2022/03/03 08:50:05;;;;;;;1.70;1.70;;;22.00;31.00;;;;;;4996785;28;20459;-69
2022/03/03 08:52:31;;;;;;;0.70;0.70;;;22.50;31.60;;;;;;4997116;28;20227;-69
2022/03/03 08:54:57;;;;;;;1.03;0.97;;;22.70;32.00;;;;;;4996849;28;20500;-69
2022/03/03 08:57:23;;;;;;;2.20;2.00;;;23.50;30.30;;;;;;4996601;28;20511;-69
2022/03/03 08:59:49;;;;;;;0.30;0.30;;;24.10;29.40;;;;;;4996714;28;20504;-69
2022/03/03 09:02:20;;;;;;;0.80;0.80;;;24.30;29.40;;;;;;4996519;28;20939;-70
2022/03/03 09:04:46;;;;;;;0.70;0.70;;;24.60;30.00;;;;;;4996859;28;20166;-69
2022/03/03 09:07:13;;;;;;;0.50;0.50;;;24.60;30.30;;;;;;4996720;28;20407;-69
2022/03/03 09:09:39;;;;;;;0.80;0.80;;;25.00;28.90;;;;;;4996662;28;20411;-70
2022/03/03 09:12:05;;;;;;;0.37;0.37;;;25.30;28.90;;;;;;4996318;28;20445;-69
2022/03/03 09:14:31;;;;;;;1.80;1.43;;;25.80;28.70;;;;;;4996435;28;20199;-69
2022/03/03 09:16:56;;;;;;;0.50;0.50;;;25.10;28.50;;;;;;4978984;28;20541;-69
2022/03/03 09:19:22;;;;;;;0.83;0.83;;;25.50;28.80;;;;;;4996371;28;20945;-69
2022/03/03 09:21:48;;;;;;;1.33;1.23;;;26.10;27.70;;;;;;4996401;28;20643;-70
2022/03/03 09:24:14;;;;;;;2.70;2.53;;;26.40;27.20;;;;;;4996253;28;20196;-69
2022/03/03 09:26:40;;;;;;;0.40;0.40;;;26.60;27.10;;;;;;4996405;28;20187;-70
2022/03/03 09:29:06;;;;;;;1.57;1.57;;;26.60;27.20;;;;;;4996189;28;20416;-69
2022/03/03 09:31:32;;;;;;;4.33;4.13;;;27.10;27.00;;;;;;4996040;28;20452;-69
2022/03/03 09:33:57;;;;;;;1.00;1.00;;;27.40;26.30;;;;;;4996083;28;20200;-69
2022/03/03 09:36:23;;;;;;;0.70;0.70;;;26.50;26.10;;;;;;4996186;28;20418;-69
2022/03/03 09:38:49;;;;;;;1.10;1.10;;;26.60;26.50;;;;;;4996109;28;20203;-68
2022/03/03 09:41:15;;;;;;;0.63;0.63;;;26.30;26.50;;;;;;4995787;28;20174;-69
2022/03/03 09:43:41;;;;;;;0.30;0.30;;;25.20;25.60;;;;;;4995950;28;20213;-70
2022/03/03 09:46:09;;;;;;;0.50;0.50;;;25.20;27.00;;;;;;4995947;28;20180;-69
2022/03/03 09:48:35;;;;;;;1.07;1.07;;;24.20;26.40;;;;;;4995905;28;20829;-68
2022/03/03 09:51:02;;;;;;;0.50;0.50;;;23.40;27.20;;;;;;4995762;28;20417;-69
2022/03/03 09:53:28;;;;;;;0.40;0.40;;;23.30;27.10;;;;;;4995354;28;20436;-69
2022/03/03 09:55:53;;;;;;;0.73;0.73;;;23.50;26.80;;;;;;4995110;28;20470;-69
2022/03/03 09:58:19;;;;;;;1.40;1.03;;;23.80;26.90;;;;;;4995739;28;20812;-69
2022/03/03 10:00:46;;;;;;;0.90;0.90;;;23.40;27.20;;;;;;4977969;28;20243;-69
2022/03/03 10:03:14;;;;;;;0.70;0.70;;;23.40;26.70;;;;;;4995616;28;20192;-69
2022/03/03 10:05:52;;;;;;;1.67;1.57;;;23.60;27.00;;;;;;4995505;28;21041;-70
2022/03/03 10:08:20;;;;;;;1.53;1.10;;;24.20;26.80;;;;;;4978185;28;20582;-69
2022/03/03 10:10:48;;;;;;;0.40;0.40;;;23.70;26.40;;;;;;4995247;28;20409;-70
2022/03/03 10:13:16;;;;;;;0.53;0.53;;;23.40;26.70;;;;;;4995463;28;20467;-69
2022/03/03 10:15:50;;;;;;;0.97;0.77;;;23.80;26.70;;;;;;4995279;28;20455;-69
2022/03/03 10:18:17;;;;;;;1.13;1.13;;;23.90;26.50;;;;;;4995514;28;20448;-69
2022/03/03 10:21:02;;;;;;;0.50;0.50;;;23.80;26.40;;;;;;4995059;28;20405;-70
2022/03/03 10:23:33;;;;;;;0.93;0.57;;;24.00;26.70;;;;;;4995379;28;20796;-69
2022/03/03 10:26:04;;;;;;;0.90;0.90;;;24.20;26.60;;;;;;4995405;28;20420;-70
2022/03/03 10:28:35;;;;;;;1.20;1.20;;;24.50;26.20;;;;;;4995204;28;20401;-69
2022/03/03 10:31:02;;;;;;;2.00;1.37;;;25.00;26.40;;;;;;4995046;28;20414;-70
2022/03/03 10:33:32;;;;;;;1.20;1.20;;;25.60;25.50;;;;;;4994921;28;20439;-69
2022/03/03 10:36:03;;;;;;;1.47;1.40;;;25.90;25.70;;;;;;4994941;28;20412;-70
2022/03/03 10:38:29;;;;;;;1.13;1.10;;;26.70;24.70;;;;;;4995049;28;20923;-69
2022/03/03 10:40:56;;;;;;;0.50;0.50;;;26.60;24.40;;;;;;4994663;28;20425;-70
2022/03/03 10:43:22;;;;;;;1.50;1.40;;;25.80;24.70;;;;;;4994827;28;20414;-70
2022/03/03 10:46:00;;;;;;;5.60;2.83;;;26.00;24.60;;;;;;4994778;28;20425;-69
2022/03/03 10:48:26;;;;;;;2.10;2.00;;;26.20;25.10;;;;;;4994780;28;20230;-69
2022/03/03 10:51:00;;;;;;;0.30;0.30;;;26.90;24.60;;;;;;4994796;28;20758;-70
2022/03/03 10:53:26;;;;;;;0.63;0.63;;;26.30;24.40;;;;;;4994900;28;20838;-69
2022/03/03 10:56:01;;;;;;;0.60;0.60;;;25.20;24.70;;;;;;4994707;28;20378;-69
2022/03/03 10:58:48;;;;;;;2.50;0.73;;;24.50;25.50;;;;;;4994698;28;20195;-70
2022/03/03 11:01:16;;;;;;;0.40;0.40;;;24.90;25.60;;;;;;4994499;28;20822;-69
2022/03/03 11:03:49;;;;;;;2.10;2.00;;;24.20;25.30;;;;;;4994420;28;20505;-69
2022/03/03 11:06:18;;;;;;;0.57;0.57;;;22.90;26.00;;;;;;4994326;28;20439;-69
2022/03/03 11:08:46;;;;;;;1.83;0.77;;;22.40;26.90;;;;;;4994572;28;20467;-69
2022/03/03 11:11:12;;;;;;;1.37;0.80;;;22.50;27.40;;;;;;4994161;28;20411;-71
2022/03/03 11:13:39;;;;;;;2.10;2.00;;;22.90;27.40;;;;;;4994542;28;20957;-69
2022/03/03 11:16:07;;;;;;;0.60;0.60;;;22.60;27.30;;;;;;4994397;28;20180;-68
2022/03/03 11:18:32;;;;;;;0.30;0.30;;;20.90;28.20;;;;;;4994189;28;20508;-68
2022/03/03 11:20:58;;;;;;;0.40;0.40;;;19.70;28.60;;;;;;4994105;28;20770;-70
2022/03/03 11:23:24;;;;;;;0.50;0.50;;;18.80;31.90;;;;;;4976770;28;20333;-70
2022/03/03 11:25:52;;;;;;;0.30;0.30;;;18.40;30.20;;;;;;4994214;28;20176;-68
2022/03/03 11:28:19;;;;;;;0.33;0.33;;;17.60;30.80;;;;;;4994413;28;20420;-69
2022/03/03 11:30:46;;;;;;;1.33;1.33;;;17.20;31.70;;;;;;4993999;28;20415;-68
2022/03/03 11:33:30;;;;;;;0.77;0.77;;;17.00;32.50;;;;;;4994223;28;20442;-69
2022/03/03 11:36:01;;;;;;;0.40;0.40;;;16.90;33.60;;;;;;4994104;28;20390;-70
2022/03/03 11:38:54;;;;;;;0.83;0.83;;;16.50;33.20;;;;;;4994015;28;20504;-70
2022/03/03 11:41:25;;;;;;;1.90;1.80;;;16.30;36.20;;;;;;4986595;28;20906;-70
2022/03/03 11:44:14;;;;;;;0.30;0.30;;;16.10;35.10;;;;;;4994023;28;20433;-69
2022/03/03 11:46:46;;;;;;;0.40;0.40;;;15.20;35.50;;;;;;4994229;28;20408;-70
2022/03/03 11:49:20;;;;;;;0.30;0.30;;;15.00;36.50;;;;;;4994212;28;20756;-69
2022/03/03 11:51:48;;;;;;;2.10;2.00;;;14.70;32.60;;;;;;4994015;28;20409;-68
2022/03/03 11:54:14;;;;;;;0.50;0.50;;;14.70;32.60;;;;;;4993916;28;20438;-68
2022/03/03 11:57:08;;;;;;;0.30;0.30;;;15.10;35.90;;;;;;4994029;28;20411;-69
2022/03/03 11:59:45;;;;;;;0.30;0.30;;;15.40;33.70;;;;;;4994200;28;20542;-69
2022/03/03 12:02:16;;;;;;;0.30;0.30;;;15.50;31.80;;;;;;4993797;28;20399;-70
2022/03/03 12:04:44;;;;;;;0.50;0.50;;;15.60;32.90;;;;;;4993933;28;20470;-68
2022/03/03 12:07:29;;;;;;;0.30;0.30;;;15.80;33.50;;;;;;4993906;28;20404;-70
2022/03/03 12:09:56;;;;;;;0.40;0.40;;;15.60;33.90;;;;;;4993643;28;20406;-69
2022/03/03 12:12:28;;;;;;;0.33;0.33;;;15.40;33.70;;;;;;4993707;28;20936;-69
2022/03/03 12:14:58;;;;;;;0.80;0.80;;;15.20;35.50;;;;;;4993838;28;20387;-68
2022/03/03 12:17:46;;;;;;;1.03;1.03;;;15.20;35.00;;;;;;4994775;28;20503;-70
2022/03/03 12:20:23;;;;;;;0.93;0.93;;;14.90;36.70;;;;;;4997616;28;20469;-69
2022/03/03 12:23:10;;;;;;;0.40;0.40;;;14.50;36.20;;;;;;4997643;28;20434;-70
2022/03/03 12:25:50;;;;;;;0.30;0.30;;;14.40;40.10;;;;;;4997516;28;20470;-69
2022/03/03 12:28:23;;;;;;;1.03;1.03;;;14.40;40.30;;;;;;4997387;28;20510;-69
2022/03/03 12:30:51;;;;;;;0.30;0.30;;;14.60;37.10;;;;;;4997326;28;20446;-68
2022/03/03 12:33:27;;;;;;;0.40;0.40;;;14.70;36.80;;;;;;4997194;28;20514;-68
2022/03/03 12:36:00;;;;;;;0.50;0.50;;;14.70;38.10;;;;;;4980081;28;20415;-70
2022/03/03 12:38:27;;;;;;;0.30;0.30;;;14.70;38.90;;;;;;4996538;28;20492;-69
2022/03/03 12:40:54;;;;;;;0.30;0.30;;;14.40;39.00;;;;;;4997342;28;20411;-69
2022/03/03 12:43:21;;;;;;;0.30;0.30;;;14.30;38.40;;;;;;4997098;28;20431;-69
2022/03/03 12:45:48;;;;;;;1.27;0.93;;;14.30;37.80;;;;;;4997169;28;20482;-68
2022/03/03 12:48:26;;;;;;;1.07;0.73;;;14.50;38.00;;;;;;4997158;28;20422;-69
2022/03/03 12:50:59;;;;;;;0.30;0.30;;;14.10;38.40;;;;;;4996794;28;20437;-69
2022/03/03 12:53:34;;;;;;;0.30;0.30;;;13.80;39.00;;;;;;4997175;28;20951;-69
2022/03/03 12:55:59;;;;;;;0.80;0.80;;;14.10;38.60;;;;;;4997014;28;20432;-69
2022/03/03 12:58:31;;;;;;;0.73;0.60;;;14.20;38.80;;;;;;4996873;28;20494;-68